sensor_id;sensor_type;location;lat;lon;timestamp;pressure;altitude;pressure_sealevel;temperature;humidity
75681;BME280;64294;49.176;16.626;2023-03-14T00:01:38;97754.84;;;7.54;72.23
75681;BME280;64294;49.176;16.626;2023-03-14T00:04:04;97751.47;;;7.48;72.66
75681;BME280;64294;49.176;16.626;2023-03-14T00:06:30;97748.44;;;7.39;73.20
75681;BME280;64294;49.176;16.626;2023-03-14T00:08:56;97746.19;;;7.37;73.37
75681;BME280;64294;49.176;16.626;2023-03-14T00:11:22;97741.91;;;7.28;73.86
75681;BME280;64294;49.176;16.626;2023-03-14T00:13:49;97742.09;;;7.38;73.60
75681;BME280;64294;49.176;16.626;2023-03-14T00:16:14;97740.03;;;7.31;73.58
75681;BME280;64294;49.176;16.626;2023-03-14T00:18:40;97745.25;;;7.27;74.11
75681;BME280;64294;49.176;16.626;2023-03-14T00:21:07;97744.53;;;7.34;74.03
75681;BME280;64294;49.176;16.626;2023-03-14T00:23:35;97754.59;;;7.37;73.90
75681;BME280;64294;49.176;16.626;2023-03-14T00:26:02;97753.81;;;7.29;74.26
75681;BME280;64294;49.176;16.626;2023-03-14T00:28:29;97758.13;;;7.38;74.18
75681;BME280;64294;49.176;16.626;2023-03-14T00:30:54;97755.75;;;7.49;73.57
75681;BME280;64294;49.176;16.626;2023-03-14T00:33:20;97751.84;;;7.60;73.04
75681;BME280;64294;49.176;16.626;2023-03-14T00:35:56;97746.81;;;7.58;73.18
75681;BME280;64294;49.176;16.626;2023-03-14T00:38:22;97737.31;;;7.62;72.92
75681;BME280;64294;49.176;16.626;2023-03-14T00:40:47;97750.72;;;7.55;72.92
75681;BME280;64294;49.176;16.626;2023-03-14T00:43:13;97745.16;;;7.55;73.32
75681;BME280;64294;49.176;16.626;2023-03-14T00:45:38;97744.22;;;7.60;73.15
75681;BME280;64294;49.176;16.626;2023-03-14T00:48:04;97730.59;;;7.49;73.20
75681;BME280;64294;49.176;16.626;2023-03-14T00:50:29;97717.69;;;7.39;73.97
75681;BME280;64294;49.176;16.626;2023-03-14T00:52:54;97717.13;;;7.33;74.42
75681;BME280;64294;49.176;16.626;2023-03-14T00:55:20;97721.03;;;7.29;74.52
75681;BME280;64294;49.176;16.626;2023-03-14T00:57:45;97713.59;;;7.32;74.40
75681;BME280;64294;49.176;16.626;2023-03-14T01:00:11;97705.41;;;7.34;74.13
75681;BME280;64294;49.176;16.626;2023-03-14T01:02:37;97698.69;;;7.37;74.08
75681;BME280;64294;49.176;16.626;2023-03-14T01:05:03;97689.97;;;7.56;73.16
75681;BME280;64294;49.176;16.626;2023-03-14T01:07:29;97696.13;;;7.54;73.40
75681;BME280;64294;49.176;16.626;2023-03-14T01:09:54;97696.88;;;7.55;73.39
75681;BME280;64294;49.176;16.626;2023-03-14T01:12:20;97691.28;;;7.47;73.40
75681;BME280;64294;49.176;16.626;2023-03-14T01:14:45;97682.31;;;7.41;73.85
75681;BME280;64294;49.176;16.626;2023-03-14T01:17:11;97673.94;;;7.49;73.33
75681;BME280;64294;49.176;16.626;2023-03-14T01:19:36;97664.25;;;7.50;73.49
75681;BME280;64294;49.176;16.626;2023-03-14T01:22:02;97671.69;;;7.40;73.61
75681;BME280;64294;49.176;16.626;2023-03-14T01:24:27;97679.50;;;7.26;74.54
75681;BME280;64294;49.176;16.626;2023-03-14T01:26:52;97678.44;;;7.01;75.00
75681;BME280;64294;49.176;16.626;2023-03-14T01:29:18;97673.16;;;6.82;76.48
75681;BME280;64294;49.176;16.626;2023-03-14T01:31:43;97652.25;;;6.67;77.29
75681;BME280;64294;49.176;16.626;2023-03-14T01:34:09;97652.09;;;6.73;77.28
75681;BME280;64294;49.176;16.626;2023-03-14T01:36:34;97641.03;;;6.60;78.04
75681;BME280;64294;49.176;16.626;2023-03-14T01:38:59;97623.13;;;6.48;78.93
75681;BME280;64294;49.176;16.626;2023-03-14T01:41:25;97608.31;;;6.68;78.25
75681;BME280;64294;49.176;16.626;2023-03-14T01:43:51;97587.47;;;6.69;77.71
75681;BME280;64294;49.176;16.626;2023-03-14T01:46:24;97584.91;;;6.79;77.69
75681;BME280;64294;49.176;16.626;2023-03-14T01:49:15;97588.88;;;6.98;76.04
75681;BME280;64294;49.176;16.626;2023-03-14T01:54:28;97596.56;;;7.13;75.48
75681;BME280;64294;49.176;16.626;2023-03-14T01:56:58;97598.06;;;7.14;75.15
75681;BME280;64294;49.176;16.626;2023-03-14T01:59:27;97594.69;;;7.23;74.50
75681;BME280;64294;49.176;16.626;2023-03-14T02:01:55;97596.94;;;7.25;74.21
75681;BME280;64294;49.176;16.626;2023-03-14T02:04:21;97608.50;;;7.37;73.61
75681;BME280;64294;49.176;16.626;2023-03-14T02:07:14;97621.56;;;7.34;73.20
75681;BME280;64294;49.176;16.626;2023-03-14T02:09:41;97598.44;;;7.34;73.46
75681;BME280;64294;49.176;16.626;2023-03-14T02:12:08;97604.97;;;7.28;73.70
75681;BME280;64294;49.176;16.626;2023-03-14T02:14:36;97630.28;;;7.15;74.38
75681;BME280;64294;49.176;16.626;2023-03-14T02:17:04;97623.16;;;6.99;75.16
75681;BME280;64294;49.176;16.626;2023-03-14T02:19:52;97625.72;;;6.89;75.87
75681;BME280;64294;49.176;16.626;2023-03-14T02:22:19;97630.22;;;6.92;75.71
75681;BME280;64294;49.176;16.626;2023-03-14T02:27:26;97661.16;;;6.66;76.76
75681;BME280;64294;49.176;16.626;2023-03-14T02:29:53;97701.91;;;6.61;77.33
75681;BME280;64294;49.176;16.626;2023-03-14T02:32:21;97712.88;;;6.59;77.46
75681;BME280;64294;49.176;16.626;2023-03-14T02:34:50;97699.91;;;6.41;78.48
75681;BME280;64294;49.176;16.626;2023-03-14T02:37:19;97684.44;;;6.32;78.42
75681;BME280;64294;49.176;16.626;2023-03-14T02:39:46;97679.84;;;6.14;80.04
75681;BME280;64294;49.176;16.626;2023-03-14T02:42:14;97653.72;;;6.04;80.37
75681;BME280;64294;49.176;16.626;2023-03-14T02:44:54;97652.50;;;5.92;81.38
75681;BME280;64294;49.176;16.626;2023-03-14T02:47:27;97658.56;;;5.83;82.09
75681;BME280;64294;49.176;16.626;2023-03-14T02:50:02;97648.97;;;5.70;83.19
75681;BME280;64294;49.176;16.626;2023-03-14T02:52:28;97649.66;;;5.63;83.82
75681;BME280;64294;49.176;16.626;2023-03-14T02:54:53;97644.00;;;5.56;84.21
75681;BME280;64294;49.176;16.626;2023-03-14T02:57:19;97615.94;;;5.54;84.49
75681;BME280;64294;49.176;16.626;2023-03-14T02:59:44;97611.41;;;5.43;85.15
75681;BME280;64294;49.176;16.626;2023-03-14T03:02:09;97612.53;;;5.47;85.17
75681;BME280;64294;49.176;16.626;2023-03-14T03:04:35;97608.19;;;5.39;85.79
75681;BME280;64294;49.176;16.626;2023-03-14T03:07:00;97623.69;;;5.47;84.46
75681;BME280;64294;49.176;16.626;2023-03-14T03:09:25;97626.00;;;5.77;83.70
75681;BME280;64294;49.176;16.626;2023-03-14T03:11:51;97640.38;;;5.89;81.96
75681;BME280;64294;49.176;16.626;2023-03-14T03:14:16;97641.13;;;6.11;81.51
75681;BME280;64294;49.176;16.626;2023-03-14T03:16:41;97652.97;;;6.03;81.59
75681;BME280;64294;49.176;16.626;2023-03-14T03:19:07;97660.78;;;6.05;81.35
75681;BME280;64294;49.176;16.626;2023-03-14T03:21:32;97660.34;;;6.22;80.05
75681;BME280;64294;49.176;16.626;2023-03-14T03:23:57;97665.66;;;6.12;81.04
75681;BME280;64294;49.176;16.626;2023-03-14T03:26:23;97655.50;;;6.15;80.74
75681;BME280;64294;49.176;16.626;2023-03-14T03:28:50;97659.97;;;6.18;80.68
75681;BME280;64294;49.176;16.626;2023-03-14T03:31:16;97656.22;;;6.44;78.88
75681;BME280;64294;49.176;16.626;2023-03-14T03:33:42;97647.66;;;6.42;78.73
75681;BME280;64294;49.176;16.626;2023-03-14T03:36:08;97664.25;;;6.19;80.32
75681;BME280;64294;49.176;16.626;2023-03-14T03:38:34;97659.66;;;6.00;80.89
75681;BME280;64294;49.176;16.626;2023-03-14T03:41:03;97658.22;;;5.86;81.94
75681;BME280;64294;49.176;16.626;2023-03-14T03:43:29;97659.44;;;5.77;82.50
75681;BME280;64294;49.176;16.626;2023-03-14T03:45:54;97666.03;;;5.67;83.05
75681;BME280;64294;49.176;16.626;2023-03-14T03:48:20;97662.66;;;5.61;83.40
75681;BME280;64294;49.176;16.626;2023-03-14T03:50:46;97651.41;;;5.53;83.77
75681;BME280;64294;49.176;16.626;2023-03-14T03:53:12;97635.38;;;5.46;84.44
75681;BME280;64294;49.176;16.626;2023-03-14T03:55:40;97627.47;;;5.37;85.01
75681;BME280;64294;49.176;16.626;2023-03-14T03:58:07;97625.53;;;5.24;85.23
75681;BME280;64294;49.176;16.626;2023-03-14T04:00:32;97636.16;;;5.12;85.33
75681;BME280;64294;49.176;16.626;2023-03-14T04:02:58;97635.00;;;5.08;86.10
75681;BME280;64294;49.176;16.626;2023-03-14T04:05:24;97623.78;;;5.00;86.97
75681;BME280;64294;49.176;16.626;2023-03-14T04:07:49;97632.59;;;4.91;87.13
75681;BME280;64294;49.176;16.626;2023-03-14T04:10:15;97628.00;;;4.80;88.11
75681;BME280;64294;49.176;16.626;2023-03-14T04:12:40;97625.88;;;4.86;88.06
75681;BME280;64294;49.176;16.626;2023-03-14T04:15:06;97613.25;;;4.72;88.37
75681;BME280;64294;49.176;16.626;2023-03-14T04:17:32;97613.53;;;4.82;88.26
75681;BME280;64294;49.176;16.626;2023-03-14T04:19:57;97618.94;;;4.67;89.17
75681;BME280;64294;49.176;16.626;2023-03-14T04:22:23;97616.59;;;4.57;89.65
75681;BME280;64294;49.176;16.626;2023-03-14T04:24:48;97615.78;;;4.49;90.21
75681;BME280;64294;49.176;16.626;2023-03-14T04:27:13;97602.69;;;4.57;90.00
75681;BME280;64294;49.176;16.626;2023-03-14T04:29:40;97593.94;;;4.53;89.59
75681;BME280;64294;49.176;16.626;2023-03-14T04:32:05;97594.25;;;4.50;89.96
75681;BME280;64294;49.176;16.626;2023-03-14T04:34:31;97588.13;;;4.65;89.74
75681;BME280;64294;49.176;16.626;2023-03-14T04:36:56;97566.19;;;4.61;88.89
75681;BME280;64294;49.176;16.626;2023-03-14T04:39:21;97562.06;;;4.41;90.10
75681;BME280;64294;49.176;16.626;2023-03-14T04:41:47;97559.06;;;4.39;90.09
75681;BME280;64294;49.176;16.626;2023-03-14T04:44:12;97552.88;;;4.46;90.24
75681;BME280;64294;49.176;16.626;2023-03-14T04:46:38;97533.72;;;4.43;90.70
75681;BME280;64294;49.176;16.626;2023-03-14T04:49:03;97530.34;;;4.57;89.26
75681;BME280;64294;49.176;16.626;2023-03-14T04:51:29;97523.47;;;4.72;89.43
75681;BME280;64294;49.176;16.626;2023-03-14T04:53:54;97531.88;;;4.79;89.34
75681;BME280;64294;49.176;16.626;2023-03-14T04:56:21;97527.41;;;4.76;88.08
75681;BME280;64294;49.176;16.626;2023-03-14T04:58:46;97531.88;;;4.79;88.37
75681;BME280;64294;49.176;16.626;2023-03-14T05:01:11;97530.69;;;4.88;87.78
75681;BME280;64294;49.176;16.626;2023-03-14T05:03:37;97533.19;;;4.99;87.61
75681;BME280;64294;49.176;16.626;2023-03-14T05:06:03;97539.84;;;4.96;86.84
75681;BME280;64294;49.176;16.626;2023-03-14T05:08:29;97538.69;;;5.12;86.73
75681;BME280;64294;49.176;16.626;2023-03-14T05:10:56;97543.84;;;5.29;85.25
75681;BME280;64294;49.176;16.626;2023-03-14T05:13:22;97533.88;;;5.34;85.25
75681;BME280;64294;49.176;16.626;2023-03-14T05:15:47;97532.84;;;5.44;84.25
75681;BME280;64294;49.176;16.626;2023-03-14T05:18:13;97530.09;;;5.52;84.18
75681;BME280;64294;49.176;16.626;2023-03-14T05:20:38;97508.31;;;5.43;84.54
75681;BME280;64294;49.176;16.626;2023-03-14T05:23:03;97513.78;;;5.56;83.71
75681;BME280;64294;49.176;16.626;2023-03-14T05:25:29;97510.31;;;5.63;83.12
75681;BME280;64294;49.176;16.626;2023-03-14T05:27:55;97532.06;;;5.65;82.88
75681;BME280;64294;49.176;16.626;2023-03-14T05:30:20;97541.75;;;5.71;82.97
75681;BME280;64294;49.176;16.626;2023-03-14T05:32:47;97555.28;;;5.67;82.96
75681;BME280;64294;49.176;16.626;2023-03-14T05:35:12;97561.22;;;5.64;83.46
75681;BME280;64294;49.176;16.626;2023-03-14T05:37:38;97579.25;;;5.63;84.03
75681;BME280;64294;49.176;16.626;2023-03-14T05:40:04;97573.88;;;5.65;83.77
75681;BME280;64294;49.176;16.626;2023-03-14T05:42:31;97572.28;;;5.56;83.65
75681;BME280;64294;49.176;16.626;2023-03-14T05:44:57;97574.34;;;5.56;84.70
75681;BME280;64294;49.176;16.626;2023-03-14T05:47:22;97584.13;;;5.49;84.54
75681;BME280;64294;49.176;16.626;2023-03-14T05:49:48;97589.00;;;5.56;85.02
75681;BME280;64294;49.176;16.626;2023-03-14T05:52:13;97596.91;;;5.65;83.97
75681;BME280;64294;49.176;16.626;2023-03-14T05:54:39;97583.91;;;5.68;83.90
75681;BME280;64294;49.176;16.626;2023-03-14T05:57:05;97576.16;;;5.74;83.63
75681;BME280;64294;49.176;16.626;2023-03-14T05:59:30;97570.53;;;5.66;83.79
75681;BME280;64294;49.176;16.626;2023-03-14T06:01:55;97548.78;;;5.65;83.59
75681;BME280;64294;49.176;16.626;2023-03-14T06:04:21;97540.34;;;5.57;84.40
75681;BME280;64294;49.176;16.626;2023-03-14T06:06:46;97521.59;;;5.58;86.39
75681;BME280;64294;49.176;16.626;2023-03-14T06:09:12;97523.09;;;5.59;86.02
75681;BME280;64294;49.176;16.626;2023-03-14T06:11:37;97550.63;;;5.62;86.25
75681;BME280;64294;49.176;16.626;2023-03-14T06:14:02;97555.44;;;5.62;85.47
75681;BME280;64294;49.176;16.626;2023-03-14T06:16:28;97566.56;;;5.83;83.30
75681;BME280;64294;49.176;16.626;2023-03-14T06:18:53;97565.75;;;5.95;83.01
75681;BME280;64294;49.176;16.626;2023-03-14T06:21:19;97586.16;;;5.90;82.82
75681;BME280;64294;49.176;16.626;2023-03-14T06:23:45;97588.19;;;5.90;82.51
75681;BME280;64294;49.176;16.626;2023-03-14T06:26:10;97607.56;;;5.95;82.58
75681;BME280;64294;49.176;16.626;2023-03-14T06:28:37;97613.47;;;5.92;82.76
75681;BME280;64294;49.176;16.626;2023-03-14T06:31:03;97625.06;;;5.96;83.33
75681;BME280;64294;49.176;16.626;2023-03-14T06:33:28;97615.78;;;6.01;83.09
75681;BME280;64294;49.176;16.626;2023-03-14T06:35:54;97616.03;;;6.11;82.21
75681;BME280;64294;49.176;16.626;2023-03-14T06:38:19;97624.19;;;6.08;82.05
75681;BME280;64294;49.176;16.626;2023-03-14T06:40:45;97627.44;;;6.20;82.06
75681;BME280;64294;49.176;16.626;2023-03-14T06:43:10;97648.16;;;6.32;81.49
75681;BME280;64294;49.176;16.626;2023-03-14T06:45:35;97660.81;;;6.33;81.25
75681;BME280;64294;49.176;16.626;2023-03-14T06:48:01;97670.81;;;6.29;81.22
75681;BME280;64294;49.176;16.626;2023-03-14T06:50:27;97689.59;;;6.28;81.46
75681;BME280;64294;49.176;16.626;2023-03-14T06:52:52;97691.75;;;6.43;81.39
75681;BME280;64294;49.176;16.626;2023-03-14T06:55:18;97686.72;;;6.42;80.44
75681;BME280;64294;49.176;16.626;2023-03-14T06:57:43;97679.09;;;6.42;81.17
75681;BME280;64294;49.176;16.626;2023-03-14T07:00:11;97682.34;;;6.54;80.68
75681;BME280;64294;49.176;16.626;2023-03-14T07:02:37;97677.78;;;6.72;79.98
75681;BME280;64294;49.176;16.626;2023-03-14T07:05:03;97667.97;;;6.86;79.42
75681;BME280;64294;49.176;16.626;2023-03-14T07:07:28;97666.91;;;7.04;78.95
75681;BME280;64294;49.176;16.626;2023-03-14T07:09:56;97680.38;;;7.13;78.31
75681;BME280;64294;49.176;16.626;2023-03-14T07:12:23;97678.75;;;7.25;78.13
75681;BME280;64294;49.176;16.626;2023-03-14T07:14:48;97661.75;;;7.16;78.44
75681;BME280;64294;49.176;16.626;2023-03-14T07:17:14;97640.53;;;7.20;79.38
75681;BME280;64294;49.176;16.626;2023-03-14T07:19:39;97640.50;;;7.13;79.37
75681;BME280;64294;49.176;16.626;2023-03-14T07:22:07;97636.03;;;7.17;79.25
75681;BME280;64294;49.176;16.626;2023-03-14T07:24:33;97641.31;;;7.36;79.07
75681;BME280;64294;49.176;16.626;2023-03-14T07:26:58;97640.69;;;7.07;79.26
75681;BME280;64294;49.176;16.626;2023-03-14T07:29:24;97622.22;;;7.04;80.07
75681;BME280;64294;49.176;16.626;2023-03-14T07:31:49;97614.13;;;7.44;79.45
75681;BME280;64294;49.176;16.626;2023-03-14T07:34:14;97621.22;;;7.83;76.34
75681;BME280;64294;49.176;16.626;2023-03-14T07:36:40;97630.50;;;8.16;75.45
75681;BME280;64294;49.176;16.626;2023-03-14T07:39:06;97651.72;;;9.13;70.93
75681;BME280;64294;49.176;16.626;2023-03-14T07:41:32;97667.47;;;9.66;69.41
75681;BME280;64294;49.176;16.626;2023-03-14T07:43:57;97662.66;;;9.26;70.91
75681;BME280;64294;49.176;16.626;2023-03-14T07:46:23;97672.63;;;8.64;72.70
75681;BME280;64294;49.176;16.626;2023-03-14T07:48:48;97655.53;;;8.07;75.25
75681;BME280;64294;49.176;16.626;2023-03-14T07:51:14;97659.97;;;8.17;75.32
75681;BME280;64294;49.176;16.626;2023-03-14T07:53:39;97663.75;;;7.82;76.84
75681;BME280;64294;49.176;16.626;2023-03-14T07:56:05;97666.72;;;7.69;77.15
75681;BME280;64294;49.176;16.626;2023-03-14T07:58:31;97665.16;;;7.37;78.90
75681;BME280;64294;49.176;16.626;2023-03-14T08:00:58;97665.53;;;7.41;78.98
75681;BME280;64294;49.176;16.626;2023-03-14T08:03:23;97642.06;;;7.52;79.10
75681;BME280;64294;49.176;16.626;2023-03-14T08:05:50;97630.91;;;7.52;79.31
75681;BME280;64294;49.176;16.626;2023-03-14T08:08:16;97627.19;;;7.65;78.90
75681;BME280;64294;49.176;16.626;2023-03-14T08:10:41;97622.31;;;7.80;78.01
75681;BME280;64294;49.176;16.626;2023-03-14T08:13:07;97636.13;;;7.71;78.11
75681;BME280;64294;49.176;16.626;2023-03-14T08:15:32;97616.72;;;7.57;78.21
75681;BME280;64294;49.176;16.626;2023-03-14T08:17:58;97613.97;;;7.65;78.62
75681;BME280;64294;49.176;16.626;2023-03-14T08:20:27;97609.66;;;7.79;77.68
75681;BME280;64294;49.176;16.626;2023-03-14T08:22:58;97598.84;;;7.68;78.38
75681;BME280;64294;49.176;16.626;2023-03-14T08:25:24;97611.50;;;7.62;79.99
75681;BME280;64294;49.176;16.626;2023-03-14T08:27:50;97630.91;;;7.59;80.03
75681;BME280;64294;49.176;16.626;2023-03-14T08:30:17;97656.06;;;7.44;81.25
75681;BME280;64294;49.176;16.626;2023-03-14T08:32:42;97656.22;;;7.39;81.82
75681;BME280;64294;49.176;16.626;2023-03-14T08:35:09;97656.00;;;7.29;82.38
75681;BME280;64294;49.176;16.626;2023-03-14T08:37:35;97658.81;;;7.37;83.41
75681;BME280;64294;49.176;16.626;2023-03-14T08:40:02;97659.88;;;7.18;84.04
75681;BME280;64294;49.176;16.626;2023-03-14T08:42:32;97659.94;;;7.26;85.24
75681;BME280;64294;49.176;16.626;2023-03-14T08:44:58;97644.09;;;7.36;83.55
75681;BME280;64294;49.176;16.626;2023-03-14T08:47:23;97649.66;;;7.21;84.35
75681;BME280;64294;49.176;16.626;2023-03-14T08:49:49;97654.88;;;7.24;84.57
75681;BME280;64294;49.176;16.626;2023-03-14T08:52:14;97649.88;;;7.31;84.50
75681;BME280;64294;49.176;16.626;2023-03-14T08:54:42;97664.59;;;7.31;84.60
75681;BME280;64294;49.176;16.626;2023-03-14T08:57:08;97664.44;;;7.44;84.33
75681;BME280;64294;49.176;16.626;2023-03-14T08:59:33;97668.69;;;7.38;86.47
75681;BME280;64294;49.176;16.626;2023-03-14T09:01:59;97671.09;;;7.26;85.34
75681;BME280;64294;49.176;16.626;2023-03-14T09:04:24;97671.84;;;7.26;85.46
75681;BME280;64294;49.176;16.626;2023-03-14T09:06:50;97662.13;;;7.20;85.63
75681;BME280;64294;49.176;16.626;2023-03-14T09:09:15;97670.31;;;7.18;85.57
75681;BME280;64294;49.176;16.626;2023-03-14T09:11:41;97677.75;;;7.15;84.85
75681;BME280;64294;49.176;16.626;2023-03-14T09:14:06;97676.28;;;7.22;86.46
75681;BME280;64294;49.176;16.626;2023-03-14T09:16:33;97685.06;;;7.26;85.63
75681;BME280;64294;49.176;16.626;2023-03-14T09:18:58;97683.16;;;7.13;85.71
75681;BME280;64294;49.176;16.626;2023-03-14T09:21:25;97692.72;;;7.33;86.06
75681;BME280;64294;49.176;16.626;2023-03-14T09:23:51;97706.31;;;7.37;83.89
75681;BME280;64294;49.176;16.626;2023-03-14T09:26:16;97702.38;;;7.24;85.12
75681;BME280;64294;49.176;16.626;2023-03-14T09:28:42;97695.47;;;7.18;85.34
75681;BME280;64294;49.176;16.626;2023-03-14T09:31:09;97703.13;;;7.25;85.73
75681;BME280;64294;49.176;16.626;2023-03-14T09:33:35;97701.28;;;7.35;85.82
75681;BME280;64294;49.176;16.626;2023-03-14T09:36:00;97694.22;;;7.42;85.58
75681;BME280;64294;49.176;16.626;2023-03-14T09:38:26;97703.53;;;7.37;87.13
75681;BME280;64294;49.176;16.626;2023-03-14T09:40:53;97702.06;;;7.43;88.49
75681;BME280;64294;49.176;16.626;2023-03-14T09:43:21;97711.03;;;7.57;85.68
75681;BME280;64294;49.176;16.626;2023-03-14T09:45:48;97710.66;;;7.60;85.68
75681;BME280;64294;49.176;16.626;2023-03-14T09:48:21;97705.63;;;7.51;87.67
75681;BME280;64294;49.176;16.626;2023-03-14T09:50:53;97701.38;;;7.66;86.03
75681;BME280;64294;49.176;16.626;2023-03-14T09:53:22;97706.19;;;7.57;88.26
75681;BME280;64294;49.176;16.626;2023-03-14T09:55:50;97706.56;;;7.54;88.73
75681;BME280;64294;49.176;16.626;2023-03-14T09:58:21;97714.06;;;7.67;88.00
75681;BME280;64294;49.176;16.626;2023-03-14T10:00:49;97718.19;;;7.96;82.15
75681;BME280;64294;49.176;16.626;2023-03-14T10:03:31;97721.94;;;8.06;80.97
75681;BME280;64294;49.176;16.626;2023-03-14T10:05:58;97714.63;;;7.96;82.41
75681;BME280;64294;49.176;16.626;2023-03-14T10:08:24;97721.91;;;7.91;85.49
75681;BME280;64294;49.176;16.626;2023-03-14T10:10:50;97710.56;;;8.04;84.20
75681;BME280;64294;49.176;16.626;2023-03-14T10:13:21;97712.22;;;8.23;81.80
75681;BME280;64294;49.176;16.626;2023-03-14T10:18:18;97700.28;;;8.30;83.46
75681;BME280;64294;49.176;16.626;2023-03-14T10:20:47;97705.16;;;8.37;81.94
75681;BME280;64294;49.176;16.626;2023-03-14T10:26:04;97714.28;;;8.45;79.69
75681;BME280;64294;49.176;16.626;2023-03-14T10:28:33;97712.06;;;8.20;nan
75681;BME280;64294;49.176;16.626;2023-03-14T10:31:00;97702.50;;;8.16;83.80
75681;BME280;64294;49.176;16.626;2023-03-14T10:33:29;97704.75;;;8.33;84.31
75681;BME280;64294;49.176;16.626;2023-03-14T10:35:57;97707.00;;;8.27;85.04
75681;BME280;64294;49.176;16.626;2023-03-14T10:38:26;97704.59;;;8.46;81.96
75681;BME280;64294;49.176;16.626;2023-03-14T10:40:53;97688.56;;;8.39;83.28
75681;BME280;64294;49.176;16.626;2023-03-14T10:43:22;97682.56;;;8.42;82.75
75681;BME280;64294;49.176;16.626;2023-03-14T10:45:57;97689.47;;;8.26;83.08
75681;BME280;64294;49.176;16.626;2023-03-14T10:48:30;97690.19;;;8.49;82.22
75681;BME280;64294;49.176;16.626;2023-03-14T10:53:24;97679.94;;;8.52;83.39
75681;BME280;64294;49.176;16.626;2023-03-14T10:55:50;97681.81;;;8.57;82.22
75681;BME280;64294;49.176;16.626;2023-03-14T11:00:57;97665.53;;;8.63;82.20
75681;BME280;64294;49.176;16.626;2023-03-14T11:03:26;97682.16;;;8.61;82.14
75681;BME280;64294;49.176;16.626;2023-03-14T11:06:09;97682.38;;;8.48;82.83
75681;BME280;64294;49.176;16.626;2023-03-14T11:09:00;97676.94;;;8.50;82.49
75681;BME280;64294;49.176;16.626;2023-03-14T11:11:31;97685.34;;;8.58;82.25
75681;BME280;64294;49.176;16.626;2023-03-14T11:16:48;97692.63;;;8.45;84.44
75681;BME280;64294;49.176;16.626;2023-03-14T11:25:13;97696.53;;;8.50;85.41
75681;BME280;64294;49.176;16.626;2023-03-14T11:27:47;97696.38;;;8.40;87.64
75681;BME280;64294;49.176;16.626;2023-03-14T11:30:18;97699.19;;;8.40;86.94
75681;BME280;64294;49.176;16.626;2023-03-14T11:33:07;97693.19;;;8.59;85.95
75681;BME280;64294;49.176;16.626;2023-03-14T11:38:33;97682.53;;;8.65;88.07
75681;BME280;64294;49.176;16.626;2023-03-14T11:41:01;97677.66;;;8.66;89.39
75681;BME280;64294;49.176;16.626;2023-03-14T11:43:35;97671.09;;;8.71;89.38
75681;BME280;64294;49.176;16.626;2023-03-14T11:46:16;97662.88;;;8.80;88.90
75681;BME280;64294;49.176;16.626;2023-03-14T11:51:27;97669.19;;;8.89;90.93
75681;BME280;64294;49.176;16.626;2023-03-14T11:54:02;97655.91;;;8.97;88.41
75681;BME280;64294;49.176;16.626;2023-03-14T11:56:34;97649.50;;;9.04;88.23
75681;BME280;64294;49.176;16.626;2023-03-14T11:59:12;97650.31;;;9.29;87.12
75681;BME280;64294;49.176;16.626;2023-03-14T12:02:10;97649.09;;;9.48;86.58
75681;BME280;64294;49.176;16.626;2023-03-14T12:07:18;97654.63;;;9.88;84.85
75681;BME280;64294;49.176;16.626;2023-03-14T12:09:45;97650.88;;;9.85;83.80
75681;BME280;64294;49.176;16.626;2023-03-14T12:12:16;97643.16;;;9.93;83.15
75681;BME280;64294;49.176;16.626;2023-03-14T12:14:58;97648.25;;;10.12;80.95
75681;BME280;64294;49.176;16.626;2023-03-14T12:22:36;97646.88;;;10.21;82.98
75681;BME280;64294;49.176;16.626;2023-03-14T12:25:21;97646.28;;;10.22;83.11
75681;BME280;64294;49.176;16.626;2023-03-14T12:33:20;97629.56;;;10.32;83.50
75681;BME280;64294;49.176;16.626;2023-03-14T12:35:49;97630.03;;;10.38;81.48
75681;BME280;64294;49.176;16.626;2023-03-14T12:43:46;97647.16;;;10.08;84.03
75681;BME280;64294;49.176;16.626;2023-03-14T12:48:47;97647.91;;;10.08;85.56
75681;BME280;64294;49.176;16.626;2023-03-14T12:51:35;97652.88;;;10.17;84.94
75681;BME280;64294;49.176;16.626;2023-03-14T12:54:33;97654.50;;;10.28;85.66
75681;BME280;64294;49.176;16.626;2023-03-14T13:00:02;97635.19;;;10.07;88.84
75681;BME280;64294;49.176;16.626;2023-03-14T13:02:41;97632.38;;;9.82;92.38
75681;BME280;64294;49.176;16.626;2023-03-14T13:05:22;97624.13;;;9.67;94.18
75681;BME280;64294;49.176;16.626;2023-03-14T13:10:24;97628.56;;;9.70;94.33
75681;BME280;64294;49.176;16.626;2023-03-14T13:12:56;97630.97;;;9.74;93.64
75681;BME280;64294;49.176;16.626;2023-03-14T13:15:39;97621.91;;;9.83;92.94
75681;BME280;64294;49.176;16.626;2023-03-14T13:18:26;97625.75;;;9.95;93.69
75681;BME280;64294;49.176;16.626;2023-03-14T13:20:59;97625.16;;;9.96;93.54
75681;BME280;64294;49.176;16.626;2023-03-14T13:23:29;97624.03;;;9.99;92.39
75681;BME280;64294;49.176;16.626;2023-03-14T13:25:56;97618.53;;;9.84;93.52
75681;BME280;64294;49.176;16.626;2023-03-14T13:28:29;97609.16;;;9.89;93.44
75681;BME280;64294;49.176;16.626;2023-03-14T13:31:00;97606.69;;;9.93;93.20
75681;BME280;64294;49.176;16.626;2023-03-14T13:33:26;97611.88;;;9.97;93.58
75681;BME280;64294;49.176;16.626;2023-03-14T13:38:30;97638.97;;;10.27;91.83
75681;BME280;64294;49.176;16.626;2023-03-14T13:40:58;97628.31;;;10.25;93.89
75681;BME280;64294;49.176;16.626;2023-03-14T13:43:39;97631.53;;;10.39;91.69
75681;BME280;64294;49.176;16.626;2023-03-14T13:46:12;97627.66;;;10.52;90.48
75681;BME280;64294;49.176;16.626;2023-03-14T13:48:53;97625.09;;;10.64;89.19
75681;BME280;64294;49.176;16.626;2023-03-14T13:51:23;97631.88;;;10.60;90.00
75681;BME280;64294;49.176;16.626;2023-03-14T13:53:52;97633.97;;;10.60;89.84
75681;BME280;64294;49.176;16.626;2023-03-14T13:56:20;97619.81;;;10.85;88.61
75681;BME280;64294;49.176;16.626;2023-03-14T13:58:46;97621.72;;;10.82;88.14
75681;BME280;64294;49.176;16.626;2023-03-14T14:03:55;97601.19;;;10.89;87.92
75681;BME280;64294;49.176;16.626;2023-03-14T14:06:34;97593.38;;;10.71;89.78